sensor_id;sensor_type;location;lat;lon;timestamp;P1;P2;P0
55043;PMS5003;54902;50.420;18.854;2022-10-16T00:00:26;22;22;18
55043;PMS5003;54902;50.420;18.854;2022-10-16T00:00:57;22;22;18
55043;PMS5003;54902;50.420;18.854;2022-10-16T00:01:29;22;22;18
55043;PMS5003;54902;50.420;18.854;2022-10-16T00:02:01;22;22;18
55043;PMS5003;54902;50.420;18.854;2022-10-16T00:02:32;22;22;18
55043;PMS5003;54902;50.420;18.854;2022-10-16T00:03:03;22;22;18
55043;PMS5003;54902;50.420;18.854;2022-10-16T00:03:35;22;22;18
55043;PMS5003;54902;50.420;18.854;2022-10-16T00:04:06;22;22;18
55043;PMS5003;54902;50.420;18.854;2022-10-16T00:04:38;22;22;18
55043;PMS5003;54902;50.420;18.854;2022-10-16T00:05:09;22;22;18
55043;PMS5003;54902;50.420;18.854;2022-10-16T00:05:41;22;22;18
55043;PMS5003;54902;50.420;18.854;2022-10-16T00:06:14;22;22;18
55043;PMS5003;54902;50.420;18.854;2022-10-16T00:06:47;22;22;18
55043;PMS5003;54902;50.420;18.854;2022-10-16T00:07:18;22;22;18
55043;PMS5003;54902;50.420;18.854;2022-10-16T00:07:49;22;22;18
55043;PMS5003;54902;50.420;18.854;2022-10-16T00:08:20;22;22;18
55043;PMS5003;54902;50.420;18.854;2022-10-16T00:08:51;22;22;18
55043;PMS5003;54902;50.420;18.854;2022-10-16T00:09:22;22;22;18
55043;PMS5003;54902;50.420;18.854;2022-10-16T00:09:53;22;22;18
55043;PMS5003;54902;50.420;18.854;2022-10-16T00:10:24;22;22;18
55043;PMS5003;54902;50.420;18.854;2022-10-16T00:10:58;22;22;18
55043;PMS5003;54902;50.420;18.854;2022-10-16T00:11:35;22;22;18
55043;PMS5003;54902;50.420;18.854;2022-10-16T00:12:09;22;22;18
55043;PMS5003;54902;50.420;18.854;2022-10-16T00:12:40;14;14;10
55043;PMS5003;54902;50.420;18.854;2022-10-16T00:13:10;14;14;10
55043;PMS5003;54902;50.420;18.854;2022-10-16T00:13:42;14;14;10
55043;PMS5003;54902;50.420;18.854;2022-10-16T00:14:15;14;14;10
55043;PMS5003;54902;50.420;18.854;2022-10-16T00:14:46;14;14;10
55043;PMS5003;54902;50.420;18.854;2022-10-16T00:15:17;14;14;10
55043;PMS5003;54902;50.420;18.854;2022-10-16T00:15:48;14;14;10
55043;PMS5003;54902;50.420;18.854;2022-10-16T00:16:19;20;20;15
55043;PMS5003;54902;50.420;18.854;2022-10-16T00:16:50;20;20;15
55043;PMS5003;54902;50.420;18.854;2022-10-16T00:17:21;20;20;15
55043;PMS5003;54902;50.420;18.854;2022-10-16T00:17:52;20;20;15
55043;PMS5003;54902;50.420;18.854;2022-10-16T00:18:23;20;20;15
55043;PMS5003;54902;50.420;18.854;2022-10-16T00:18:55;20;20;15
55043;PMS5003;54902;50.420;18.854;2022-10-16T00:19:26;20;20;15
55043;PMS5003;54902;50.420;18.854;2022-10-16T00:19:57;19;18;13
55043;PMS5003;54902;50.420;18.854;2022-10-16T00:20:28;19;18;13
55043;PMS5003;54902;50.420;18.854;2022-10-16T00:21:04;19;18;13
55043;PMS5003;54902;50.420;18.854;2022-10-16T00:21:39;18;16;12
55043;PMS5003;54902;50.420;18.854;2022-10-16T00:22:11;18;16;12
55043;PMS5003;54902;50.420;18.854;2022-10-16T00:22:42;18;16;12
55043;PMS5003;54902;50.420;18.854;2022-10-16T00:23:13;18;16;12
55043;PMS5003;54902;50.420;18.854;2022-10-16T00:23:44;18;16;12
55043;PMS5003;54902;50.420;18.854;2022-10-16T00:24:15;18;16;12
55043;PMS5003;54902;50.420;18.854;2022-10-16T00:24:46;18;16;12
55043;PMS5003;54902;50.420;18.854;2022-10-16T00:25:17;18;16;12
55043;PMS5003;54902;50.420;18.854;2022-10-16T00:26:29;18;16;12
55043;PMS5003;54902;50.420;18.854;2022-10-16T00:27:02;22;21;15
55043;PMS5003;54902;50.420;18.854;2022-10-16T00:27:33;22;21;15
55043;PMS5003;54902;50.420;18.854;2022-10-16T00:28:04;22;21;15
55043;PMS5003;54902;50.420;18.854;2022-10-16T00:28:35;22;21;15
55043;PMS5003;54902;50.420;18.854;2022-10-16T00:29:06;22;21;15
55043;PMS5003;54902;50.420;18.854;2022-10-16T00:29:37;22;21;15
55043;PMS5003;54902;50.420;18.854;2022-10-16T00:30:08;19;19;14
55043;PMS5003;54902;50.420;18.854;2022-10-16T00:30:40;19;19;14
55043;PMS5003;54902;50.420;18.854;2022-10-16T00:31:11;19;19;14
55043;PMS5003;54902;50.420;18.854;2022-10-16T00:31:42;19;19;14
55043;PMS5003;54902;50.420;18.854;2022-10-16T00:32:13;26;26;20
55043;PMS5003;54902;50.420;18.854;2022-10-16T00:32:44;26;26;20
55043;PMS5003;54902;50.420;18.854;2022-10-16T00:33:15;26;26;20
55043;PMS5003;54902;50.420;18.854;2022-10-16T00:33:46;26;26;20
55043;PMS5003;54902;50.420;18.854;2022-10-16T00:34:17;26;26;20
55043;PMS5003;54902;50.420;18.854;2022-10-16T00:34:48;26;26;20
55043;PMS5003;54902;50.420;18.854;2022-10-16T00:35:19;26;26;20
55043;PMS5003;54902;50.420;18.854;2022-10-16T00:35:50;26;26;20
55043;PMS5003;54902;50.420;18.854;2022-10-16T00:36:22;26;26;20
55043;PMS5003;54902;50.420;18.854;2022-10-16T00:36:54;26;26;20
55043;PMS5003;54902;50.420;18.854;2022-10-16T00:37:25;30;30;23
55043;PMS5003;54902;50.420;18.854;2022-10-16T00:37:56;30;30;23
55043;PMS5003;54902;50.420;18.854;2022-10-16T00:38:27;30;30;23
55043;PMS5003;54902;50.420;18.854;2022-10-16T00:38:58;30;30;23
55043;PMS5003;54902;50.420;18.854;2022-10-16T00:39:30;30;30;23
55043;PMS5003;54902;50.420;18.854;2022-10-16T00:40:01;30;30;23
55043;PMS5003;54902;50.420;18.854;2022-10-16T00:40:33;30;30;23
55043;PMS5003;54902;50.420;18.854;2022-10-16T00:41:04;30;30;23
55043;PMS5003;54902;50.420;18.854;2022-10-16T00:41:37;30;30;23
55043;PMS5003;54902;50.420;18.854;2022-10-16T00:42:10;30;30;23
55043;PMS5003;54902;50.420;18.854;2022-10-16T00:42:47;30;30;23
55043;PMS5003;54902;50.420;18.854;2022-10-16T00:44:42;30;30;23
55043;PMS5003;54902;50.420;18.854;2022-10-16T00:44:51;30;30;23
55043;PMS5003;54902;50.420;18.854;2022-10-16T00:45:27;30;30;23
55043;PMS5003;54902;50.420;18.854;2022-10-16T00:45:58;18;18;14
55043;PMS5003;54902;50.420;18.854;2022-10-16T00:47:13;18;18;14
55043;PMS5003;54902;50.420;18.854;2022-10-16T00:47:49;18;18;14
55043;PMS5003;54902;50.420;18.854;2022-10-16T00:48:25;18;18;14
55043;PMS5003;54902;50.420;18.854;2022-10-16T00:49:35;13;13;10
55043;PMS5003;54902;50.420;18.854;2022-10-16T00:50:11;13;13;10
55043;PMS5003;54902;50.420;18.854;2022-10-16T00:50:46;13;13;10
55043;PMS5003;54902;50.420;18.854;2022-10-16T00:51:21;13;13;10
55043;PMS5003;54902;50.420;18.854;2022-10-16T00:51:58;13;13;10
55043;PMS5003;54902;50.420;18.854;2022-10-16T00:52:29;13;13;10
55043;PMS5003;54902;50.420;18.854;2022-10-16T00:53:00;13;13;10
55043;PMS5003;54902;50.420;18.854;2022-10-16T00:53:33;13;13;10
55043;PMS5003;54902;50.420;18.854;2022-10-16T00:54:08;13;13;10
55043;PMS5003;54902;50.420;18.854;2022-10-16T00:54:42;16;16;12
55043;PMS5003;54902;50.420;18.854;2022-10-16T00:55:13;16;16;12
55043;PMS5003;54902;50.420;18.854;2022-10-16T00:55:44;16;16;12
55043;PMS5003;54902;50.420;18.854;2022-10-16T00:56:16;16;16;12
55043;PMS5003;54902;50.420;18.854;2022-10-16T00:56:48;16;16;12
55043;PMS5003;54902;50.420;18.854;2022-10-16T00:57:20;16;16;12
55043;PMS5003;54902;50.420;18.854;2022-10-16T00:57:52;16;16;12
55043;PMS5003;54902;50.420;18.854;2022-10-16T00:58:23;16;16;12
55043;PMS5003;54902;50.420;18.854;2022-10-16T00:58:54;16;16;12
55043;PMS5003;54902;50.420;18.854;2022-10-16T00:59:30;16;16;12
55043;PMS5003;54902;50.420;18.854;2022-10-16T01:00:04;16;16;12
55043;PMS5003;54902;50.420;18.854;2022-10-16T01:00:37;16;16;12
55043;PMS5003;54902;50.420;18.854;2022-10-16T01:01:08;16;16;12
55043;PMS5003;54902;50.420;18.854;2022-10-16T01:01:39;16;16;12
55043;PMS5003;54902;50.420;18.854;2022-10-16T01:02:11;13;13;8
55043;PMS5003;54902;50.420;18.854;2022-10-16T01:02:44;13;13;8
55043;PMS5003;54902;50.420;18.854;2022-10-16T01:03:57;13;13;8
55043;PMS5003;54902;50.420;18.854;2022-10-16T01:04:31;13;13;8
55043;PMS5003;54902;50.420;18.854;2022-10-16T01:05:08;18;18;12
55043;PMS5003;54902;50.420;18.854;2022-10-16T01:05:42;17;17;11
55043;PMS5003;54902;50.420;18.854;2022-10-16T01:06:24;17;17;11
55043;PMS5003;54902;50.420;18.854;2022-10-16T01:08:43;17;17;11
55043;PMS5003;54902;50.420;18.854;2022-10-16T01:09:22;17;17;11
55043;PMS5003;54902;50.420;18.854;2022-10-16T01:10:49;19;19;14
55043;PMS5003;54902;50.420;18.854;2022-10-16T01:11:28;19;19;14
55043;PMS5003;54902;50.420;18.854;2022-10-16T01:12:56;24;23;18
55043;PMS5003;54902;50.420;18.854;2022-10-16T01:13:38;24;23;18
55043;PMS5003;54902;50.420;18.854;2022-10-16T01:15:02;24;23;18
55043;PMS5003;54902;50.420;18.854;2022-10-16T01:15:50;24;23;18
55043;PMS5003;54902;50.420;18.854;2022-10-16T01:17:07;24;23;18
55043;PMS5003;54902;50.420;18.854;2022-10-16T01:19:56;31;29;23
55043;PMS5003;54902;50.420;18.854;2022-10-16T01:20:33;31;29;23
55043;PMS5003;54902;50.420;18.854;2022-10-16T01:21:13;31;29;23
55043;PMS5003;54902;50.420;18.854;2022-10-16T01:21:49;31;29;23
55043;PMS5003;54902;50.420;18.854;2022-10-16T01:22:25;31;29;23
55043;PMS5003;54902;50.420;18.854;2022-10-16T01:24:41;31;29;23
55043;PMS5003;54902;50.420;18.854;2022-10-16T01:25:20;31;29;23
55043;PMS5003;54902;50.420;18.854;2022-10-16T01:27:25;31;29;23
55043;PMS5003;54902;50.420;18.854;2022-10-16T01:27:59;31;29;23
55043;PMS5003;54902;50.420;18.854;2022-10-16T01:29:18;31;29;23
55043;PMS5003;54902;50.420;18.854;2022-10-16T01:30:44;31;29;23
55043;PMS5003;54902;50.420;18.854;2022-10-16T01:31:20;27;25;19
55043;PMS5003;54902;50.420;18.854;2022-10-16T01:31:59;27;25;19
55043;PMS5003;54902;50.420;18.854;2022-10-16T01:33:20;25;22;17
55043;PMS5003;54902;50.420;18.854;2022-10-16T01:34:05;25;22;17
55043;PMS5003;54902;50.420;18.854;2022-10-16T01:36:13;25;22;17
55043;PMS5003;54902;50.420;18.854;2022-10-16T01:36:55;25;22;17
55043;PMS5003;54902;50.420;18.854;2022-10-16T01:37:40;25;22;17
55043;PMS5003;54902;50.420;18.854;2022-10-16T01:38:10;25;22;17
55043;PMS5003;54902;50.420;18.854;2022-10-16T01:38:49;25;22;17
55043;PMS5003;54902;50.420;18.854;2022-10-16T01:39:24;25;22;17
55043;PMS5003;54902;50.420;18.854;2022-10-16T01:40:01;30;28;21
55043;PMS5003;54902;50.420;18.854;2022-10-16T01:40:37;30;28;21
55043;PMS5003;54902;50.420;18.854;2022-10-16T01:41:14;30;28;21
55043;PMS5003;54902;50.420;18.854;2022-10-16T01:41:53;30;28;21
55043;PMS5003;54902;50.420;18.854;2022-10-16T01:42:33;30;28;21
55043;PMS5003;54902;50.420;18.854;2022-10-16T01:43:08;30;28;21
55043;PMS5003;54902;50.420;18.854;2022-10-16T01:43:46;30;28;21
55043;PMS5003;54902;50.420;18.854;2022-10-16T01:44:24;30;28;21
55043;PMS5003;54902;50.420;18.854;2022-10-16T01:44:59;30;28;21
55043;PMS5003;54902;50.420;18.854;2022-10-16T01:45:34;28;26;19
55043;PMS5003;54902;50.420;18.854;2022-10-16T01:46:05;30;29;17
55043;PMS5003;54902;50.420;18.854;2022-10-16T01:46:39;30;29;17
55043;PMS5003;54902;50.420;18.854;2022-10-16T01:47:13;30;29;17
55043;PMS5003;54902;50.420;18.854;2022-10-16T01:47:46;30;29;17
55043;PMS5003;54902;50.420;18.854;2022-10-16T01:48:20;30;29;17
55043;PMS5003;54902;50.420;18.854;2022-10-16T01:48:54;30;29;17
55043;PMS5003;54902;50.420;18.854;2022-10-16T01:49:26;30;29;17
55043;PMS5003;54902;50.420;18.854;2022-10-16T01:50:02;30;29;17
55043;PMS5003;54902;50.420;18.854;2022-10-16T01:50:35;30;29;17
55043;PMS5003;54902;50.420;18.854;2022-10-16T01:51:11;30;29;17
55043;PMS5003;54902;50.420;18.854;2022-10-16T01:51:46;39;39;23
55043;PMS5003;54902;50.420;18.854;2022-10-16T01:52:23;39;39;23
55043;PMS5003;54902;50.420;18.854;2022-10-16T01:52:57;39;39;23
55043;PMS5003;54902;50.420;18.854;2022-10-16T01:53:29;39;39;23
55043;PMS5003;54902;50.420;18.854;2022-10-16T01:54:01;39;39;23
55043;PMS5003;54902;50.420;18.854;2022-10-16T01:54:39;39;39;23
55043;PMS5003;54902;50.420;18.854;2022-10-16T01:55:17;39;39;23
55043;PMS5003;54902;50.420;18.854;2022-10-16T01:55:53;39;39;23
55043;PMS5003;54902;50.420;18.854;2022-10-16T01:56:28;39;39;23
55043;PMS5003;54902;50.420;18.854;2022-10-16T01:57:00;39;39;23
55043;PMS5003;54902;50.420;18.854;2022-10-16T01:57:35;39;39;23
55043;PMS5003;54902;50.420;18.854;2022-10-16T01:58:10;39;39;23
55043;PMS5003;54902;50.420;18.854;2022-10-16T01:58:47;39;39;23
55043;PMS5003;54902;50.420;18.854;2022-10-16T01:59:23;39;39;23
55043;PMS5003;54902;50.420;18.854;2022-10-16T01:59:58;39;39;23
55043;PMS5003;54902;50.420;18.854;2022-10-16T02:00:34;39;39;23
55043;PMS5003;54902;50.420;18.854;2022-10-16T02:01:08;39;39;23
55043;PMS5003;54902;50.420;18.854;2022-10-16T02:01:45;39;39;23
55043;PMS5003;54902;50.420;18.854;2022-10-16T02:02:20;39;39;23
55043;PMS5003;54902;50.420;18.854;2022-10-16T02:02:53;39;39;23
55043;PMS5003;54902;50.420;18.854;2022-10-16T02:03:26;39;39;23
55043;PMS5003;54902;50.420;18.854;2022-10-16T02:03:57;39;39;23
55043;PMS5003;54902;50.420;18.854;2022-10-16T02:04:38;39;39;23
55043;PMS5003;54902;50.420;18.854;2022-10-16T02:05:17;29;29;19
55043;PMS5003;54902;50.420;18.854;2022-10-16T02:05:55;29;29;19
55043;PMS5003;54902;50.420;18.854;2022-10-16T02:06:28;29;29;19
55043;PMS5003;54902;50.420;18.854;2022-10-16T02:07:00;29;29;19
55043;PMS5003;54902;50.420;18.854;2022-10-16T02:07:31;29;29;19
55043;PMS5003;54902;50.420;18.854;2022-10-16T02:08:02;32;32;23
55043;PMS5003;54902;50.420;18.854;2022-10-16T02:08:33;32;32;23
55043;PMS5003;54902;50.420;18.854;2022-10-16T02:09:05;24;24;15
55043;PMS5003;54902;50.420;18.854;2022-10-16T02:09:36;24;24;15
55043;PMS5003;54902;50.420;18.854;2022-10-16T02:10:09;24;24;15
55043;PMS5003;54902;50.420;18.854;2022-10-16T02:10:40;24;24;15
55043;PMS5003;54902;50.420;18.854;2022-10-16T02:11:12;24;24;15
55043;PMS5003;54902;50.420;18.854;2022-10-16T02:11:43;24;24;15
55043;PMS5003;54902;50.420;18.854;2022-10-16T02:12:59;24;24;15
55043;PMS5003;54902;50.420;18.854;2022-10-16T02:13:35;24;24;15
55043;PMS5003;54902;50.420;18.854;2022-10-16T02:14:09;24;24;15
55043;PMS5003;54902;50.420;18.854;2022-10-16T02:14:40;31;31;21
55043;PMS5003;54902;50.420;18.854;2022-10-16T02:15:12;31;31;21
55043;PMS5003;54902;50.420;18.854;2022-10-16T02:15:43;31;31;21
55043;PMS5003;54902;50.420;18.854;2022-10-16T02:16:14;31;31;21
55043;PMS5003;54902;50.420;18.854;2022-10-16T02:16:45;31;31;21
55043;PMS5003;54902;50.420;18.854;2022-10-16T02:17:17;31;31;21
55043;PMS5003;54902;50.420;18.854;2022-10-16T02:17:49;31;31;21
55043;PMS5003;54902;50.420;18.854;2022-10-16T02:18:19;31;31;21
55043;PMS5003;54902;50.420;18.854;2022-10-16T02:18:51;31;31;21
55043;PMS5003;54902;50.420;18.854;2022-10-16T02:19:22;31;31;21
55043;PMS5003;54902;50.420;18.854;2022-10-16T02:19:53;31;31;21
55043;PMS5003;54902;50.420;18.854;2022-10-16T02:20:27;31;31;21
55043;PMS5003;54902;50.420;18.854;2022-10-16T02:23:09;31;31;21
55043;PMS5003;54902;50.420;18.854;2022-10-16T02:25:18;31;31;21
55043;PMS5003;54902;50.420;18.854;2022-10-16T02:25:56;31;31;21
55043;PMS5003;54902;50.420;18.854;2022-10-16T02:27:17;31;31;21
55043;PMS5003;54902;50.420;18.854;2022-10-16T02:28:56;31;31;21
55043;PMS5003;54902;50.420;18.854;2022-10-16T02:29:20;31;31;21
55043;PMS5003;54902;50.420;18.854;2022-10-16T02:29:58;31;31;21
55043;PMS5003;54902;50.420;18.854;2022-10-16T02:31:20;31;31;21
55043;PMS5003;54902;50.420;18.854;2022-10-16T02:31:59;31;31;21
55043;PMS5003;54902;50.420;18.854;2022-10-16T02:32:35;31;31;21
55043;PMS5003;54902;50.420;18.854;2022-10-16T02:33:10;31;31;21
55043;PMS5003;54902;50.420;18.854;2022-10-16T02:33:44;31;31;21
55043;PMS5003;54902;50.420;18.854;2022-10-16T02:34:16;31;31;21
55043;PMS5003;54902;50.420;18.854;2022-10-16T02:34:51;31;31;21
55043;PMS5003;54902;50.420;18.854;2022-10-16T02:35:23;31;31;21
55043;PMS5003;54902;50.420;18.854;2022-10-16T02:35:55;31;31;21
55043;PMS5003;54902;50.420;18.854;2022-10-16T02:36:27;31;31;21
55043;PMS5003;54902;50.420;18.854;2022-10-16T02:37:00;31;31;21
55043;PMS5003;54902;50.420;18.854;2022-10-16T02:37:33;31;31;21
55043;PMS5003;54902;50.420;18.854;2022-10-16T02:38:06;31;31;21
55043;PMS5003;54902;50.420;18.854;2022-10-16T02:38:40;31;31;21
55043;PMS5003;54902;50.420;18.854;2022-10-16T02:39:11;31;31;21
55043;PMS5003;54902;50.420;18.854;2022-10-16T02:39:43;31;31;21
55043;PMS5003;54902;50.420;18.854;2022-10-16T02:40:15;24;24;17
55043;PMS5003;54902;50.420;18.854;2022-10-16T02:40:47;24;24;17
55043;PMS5003;54902;50.420;18.854;2022-10-16T02:41:20;24;24;17
55043;PMS5003;54902;50.420;18.854;2022-10-16T02:41:52;24;24;17
55043;PMS5003;54902;50.420;18.854;2022-10-16T02:42:27;24;24;17
55043;PMS5003;54902;50.420;18.854;2022-10-16T02:43:00;24;24;17
55043;PMS5003;54902;50.420;18.854;2022-10-16T02:43:33;24;24;17
55043;PMS5003;54902;50.420;18.854;2022-10-16T02:44:04;32;32;21
55043;PMS5003;54902;50.420;18.854;2022-10-16T02:44:35;32;32;21
55043;PMS5003;54902;50.420;18.854;2022-10-16T02:45:07;32;32;21
55043;PMS5003;54902;50.420;18.854;2022-10-16T02:45:40;32;32;21
55043;PMS5003;54902;50.420;18.854;2022-10-16T02:46:11;32;32;21
55043;PMS5003;54902;50.420;18.854;2022-10-16T02:46:42;32;32;21
55043;PMS5003;54902;50.420;18.854;2022-10-16T02:47:13;32;32;21
55043;PMS5003;54902;50.420;18.854;2022-10-16T02:47:44;32;32;21
55043;PMS5003;54902;50.420;18.854;2022-10-16T02:48:15;32;32;21
55043;PMS5003;54902;50.420;18.854;2022-10-16T02:48:46;32;32;21
55043;PMS5003;54902;50.420;18.854;2022-10-16T02:49:17;35;35;23
55043;PMS5003;54902;50.420;18.854;2022-10-16T02:49:48;35;35;23
55043;PMS5003;54902;50.420;18.854;2022-10-16T02:50:19;35;35;23
55043;PMS5003;54902;50.420;18.854;2022-10-16T02:50:51;35;35;23
55043;PMS5003;54902;50.420;18.854;2022-10-16T02:51:21;35;35;23
55043;PMS5003;54902;50.420;18.854;2022-10-16T02:51:52;35;35;23
55043;PMS5003;54902;50.420;18.854;2022-10-16T02:52:23;35;35;23
55043;PMS5003;54902;50.420;18.854;2022-10-16T02:52:54;35;35;23
55043;PMS5003;54902;50.420;18.854;2022-10-16T02:53:25;35;35;23
55043;PMS5003;54902;50.420;18.854;2022-10-16T02:53:56;35;35;23
55043;PMS5003;54902;50.420;18.854;2022-10-16T02:54:27;35;35;23
55043;PMS5003;54902;50.420;18.854;2022-10-16T02:54:58;35;35;23
55043;PMS5003;54902;50.420;18.854;2022-10-16T02:55:29;35;35;23
55043;PMS5003;54902;50.420;18.854;2022-10-16T02:55:59;35;35;23
55043;PMS5003;54902;50.420;18.854;2022-10-16T02:56:30;35;35;23
55043;PMS5003;54902;50.420;18.854;2022-10-16T02:57:01;35;35;23
55043;PMS5003;54902;50.420;18.854;2022-10-16T02:57:32;35;35;23
55043;PMS5003;54902;50.420;18.854;2022-10-16T02:58:03;35;35;23
55043;PMS5003;54902;50.420;18.854;2022-10-16T02:58:34;35;35;23
55043;PMS5003;54902;50.420;18.854;2022-10-16T02:59:05;35;35;23
55043;PMS5003;54902;50.420;18.854;2022-10-16T02:59:36;35;35;23
55043;PMS5003;54902;50.420;18.854;2022-10-16T03:00:09;35;35;23
55043;PMS5003;54902;50.420;18.854;2022-10-16T03:00:42;35;35;23
55043;PMS5003;54902;50.420;18.854;2022-10-16T03:01:13;35;35;23
55043;PMS5003;54902;50.420;18.854;2022-10-16T03:01:46;35;35;23
55043;PMS5003;54902;50.420;18.854;2022-10-16T03:02:17;25;25;18
55043;PMS5003;54902;50.420;18.854;2022-10-16T03:02:48;25;25;18
55043;PMS5003;54902;50.420;18.854;2022-10-16T03:03:19;25;25;18
55043;PMS5003;54902;50.420;18.854;2022-10-16T03:03:50;25;25;18
55043;PMS5003;54902;50.420;18.854;2022-10-16T03:04:21;25;25;18
55043;PMS5003;54902;50.420;18.854;2022-10-16T03:04:52;27;26;20
55043;PMS5003;54902;50.420;18.854;2022-10-16T03:05:23;27;26;20
55043;PMS5003;54902;50.420;18.854;2022-10-16T03:05:54;27;26;20
55043;PMS5003;54902;50.420;18.854;2022-10-16T03:06:25;27;26;20
55043;PMS5003;54902;50.420;18.854;2022-10-16T03:06:56;27;26;20
55043;PMS5003;54902;50.420;18.854;2022-10-16T03:07:27;27;26;20
55043;PMS5003;54902;50.420;18.854;2022-10-16T03:07:58;27;26;20
55043;PMS5003;54902;50.420;18.854;2022-10-16T03:08:30;27;26;20
55043;PMS5003;54902;50.420;18.854;2022-10-16T03:09:02;27;26;20
55043;PMS5003;54902;50.420;18.854;2022-10-16T03:09:33;27;26;20
55043;PMS5003;54902;50.420;18.854;2022-10-16T03:10:04;32;31;23
55043;PMS5003;54902;50.420;18.854;2022-10-16T03:10:36;32;31;23
55043;PMS5003;54902;50.420;18.854;2022-10-16T03:11:07;32;31;23
55043;PMS5003;54902;50.420;18.854;2022-10-16T03:11:38;32;31;23
55043;PMS5003;54902;50.420;18.854;2022-10-16T03:12:09;32;31;23
55043;PMS5003;54902;50.420;18.854;2022-10-16T03:12:42;32;31;23
55043;PMS5003;54902;50.420;18.854;2022-10-16T03:13:13;32;31;23
55043;PMS5003;54902;50.420;18.854;2022-10-16T03:13:44;32;31;23
55043;PMS5003;54902;50.420;18.854;2022-10-16T03:14:15;32;31;23
55043;PMS5003;54902;50.420;18.854;2022-10-16T03:14:46;32;31;23
55043;PMS5003;54902;50.420;18.854;2022-10-16T03:15:17;32;31;23
55043;PMS5003;54902;50.420;18.854;2022-10-16T03:15:48;32;31;23
55043;PMS5003;54902;50.420;18.854;2022-10-16T03:16:19;32;31;23
55043;PMS5003;54902;50.420;18.854;2022-10-16T03:16:50;32;31;23
55043;PMS5003;54902;50.420;18.854;2022-10-16T03:17:21;32;31;23
55043;PMS5003;54902;50.420;18.854;2022-10-16T03:17:51;32;31;23
55043;PMS5003;54902;50.420;18.854;2022-10-16T03:18:22;32;31;23
55043;PMS5003;54902;50.420;18.854;2022-10-16T03:18:53;32;31;23
55043;PMS5003;54902;50.420;18.854;2022-10-16T03:19:24;32;31;23
55043;PMS5003;54902;50.420;18.854;2022-10-16T03:19:55;32;31;23
55043;PMS5003;54902;50.420;18.854;2022-10-16T03:20:26;32;31;23
55043;PMS5003;54902;50.420;18.854;2022-10-16T03:20:57;32;31;23
55043;PMS5003;54902;50.420;18.854;2022-10-16T03:21:28;32;31;23
55043;PMS5003;54902;50.420;18.854;2022-10-16T03:21:59;32;31;23
55043;PMS5003;54902;50.420;18.854;2022-10-16T03:22:30;32;31;23
55043;PMS5003;54902;50.420;18.854;2022-10-16T03:23:02;32;31;23
55043;PMS5003;54902;50.420;18.854;2022-10-16T03:23:33;32;31;23
55043;PMS5003;54902;50.420;18.854;2022-10-16T03:24:04;32;31;23
55043;PMS5003;54902;50.420;18.854;2022-10-16T03:24:35;32;31;23
55043;PMS5003;54902;50.420;18.854;2022-10-16T03:25:06;32;31;23
55043;PMS5003;54902;50.420;18.854;2022-10-16T03:25:38;32;31;23
55043;PMS5003;54902;50.420;18.854;2022-10-16T03:26:09;32;31;23
55043;PMS5003;54902;50.420;18.854;2022-10-16T03:26:40;32;31;23
55043;PMS5003;54902;50.420;18.854;2022-10-16T03:27:10;32;31;23
55043;PMS5003;54902;50.420;18.854;2022-10-16T03:27:41;32;31;23
55043;PMS5003;54902;50.420;18.854;2022-10-16T03:28:12;32;31;23
55043;PMS5003;54902;50.420;18.854;2022-10-16T03:28:43;32;31;23
55043;PMS5003;54902;50.420;18.854;2022-10-16T03:29:14;32;31;23
55043;PMS5003;54902;50.420;18.854;2022-10-16T03:29:45;32;31;23
55043;PMS5003;54902;50.420;18.854;2022-10-16T03:30:16;32;31;23
55043;PMS5003;54902;50.420;18.854;2022-10-16T03:30:47;32;31;23
55043;PMS5003;54902;50.420;18.854;2022-10-16T03:31:18;32;31;23
55043;PMS5003;54902;50.420;18.854;2022-10-16T03:31:49;32;31;23
55043;PMS5003;54902;50.420;18.854;2022-10-16T03:32:20;32;31;23
55043;PMS5003;54902;50.420;18.854;2022-10-16T03:32:52;32;31;23
55043;PMS5003;54902;50.420;18.854;2022-10-16T03:33:24;32;31;23
55043;PMS5003;54902;50.420;18.854;2022-10-16T03:33:55;32;31;23
55043;PMS5003;54902;50.420;18.854;2022-10-16T03:34:26;32;31;23
55043;PMS5003;54902;50.420;18.854;2022-10-16T03:34:58;32;31;23
55043;PMS5003;54902;50.420;18.854;2022-10-16T03:35:29;32;31;23
55043;PMS5003;54902;50.420;18.854;2022-10-16T03:36:00;32;31;23
55043;PMS5003;54902;50.420;18.854;2022-10-16T03:36:31;32;31;23
55043;PMS5003;54902;50.420;18.854;2022-10-16T03:37:02;32;31;23
55043;PMS5003;54902;50.420;18.854;2022-10-16T03:37:33;32;31;23
55043;PMS5003;54902;50.420;18.854;2022-10-16T03:38:04;32;31;23
55043;PMS5003;54902;50.420;18.854;2022-10-16T03:38:35;32;31;23
55043;PMS5003;54902;50.420;18.854;2022-10-16T03:39:06;32;31;23
55043;PMS5003;54902;50.420;18.854;2022-10-16T03:39:37;32;31;23
55043;PMS5003;54902;50.420;18.854;2022-10-16T03:40:08;32;31;23
55043;PMS5003;54902;50.420;18.854;2022-10-16T03:40:40;32;31;23
55043;PMS5003;54902;50.420;18.854;2022-10-16T03:41:10;32;31;23
55043;PMS5003;54902;50.420;18.854;2022-10-16T03:41:41;32;31;23
55043;PMS5003;54902;50.420;18.854;2022-10-16T03:42:12;32;31;23
55043;PMS5003;54902;50.420;18.854;2022-10-16T03:42:43;32;31;23
55043;PMS5003;54902;50.420;18.854;2022-10-16T03:43:14;32;31;23
55043;PMS5003;54902;50.420;18.854;2022-10-16T03:43:45;32;31;23
55043;PMS5003;54902;50.420;18.854;2022-10-16T03:44:16;32;31;23
55043;PMS5003;54902;50.420;18.854;2022-10-16T03:44:47;32;31;23
55043;PMS5003;54902;50.420;18.854;2022-10-16T03:45:18;32;31;23
55043;PMS5003;54902;50.420;18.854;2022-10-16T03:45:51;30;28;21
55043;PMS5003;54902;50.420;18.854;2022-10-16T03:46:22;14;14;8
55043;PMS5003;54902;50.420;18.854;2022-10-16T03:46:53;14;14;8
55043;PMS5003;54902;50.420;18.854;2022-10-16T03:47:24;14;14;8
55043;PMS5003;54902;50.420;18.854;2022-10-16T03:47:55;14;14;8
55043;PMS5003;54902;50.420;18.854;2022-10-16T03:48:26;14;14;8
55043;PMS5003;54902;50.420;18.854;2022-10-16T03:48:57;14;14;8
55043;PMS5003;54902;50.420;18.854;2022-10-16T03:49:28;14;14;8
55043;PMS5003;54902;50.420;18.854;2022-10-16T03:49:59;14;14;8
55043;PMS5003;54902;50.420;18.854;2022-10-16T03:50:30;14;14;8
55043;PMS5003;54902;50.420;18.854;2022-10-16T03:51:01;14;14;8
55043;PMS5003;54902;50.420;18.854;2022-10-16T03:51:32;21;21;13
55043;PMS5003;54902;50.420;18.854;2022-10-16T03:52:03;21;21;13